SACO/COR METAR and TAF weather

Enter ICAO airport designator
Station Type Date Time Source
SACO METAR 2019/02/21 12:00 UTC NOAA

SACO 211200Z 03014KT CAVOK 28/19 Q1009 NOSIG


Station Type Date Time Source
SACO Decoded METAR 2019/02/21 12:00 UTC NOAA

Cordoba Aerodrome, Argentina (SACO) 31-19S 064-13W 474M
Feb 21, 2019 - 07:00 AM EST / 2019.02.21 1200 UTC
Wind: from the NNE (030 degrees) at 16 MPH (14 KT):0
Visibility: greater than 7 mile(s):0
Temperature: 82 F (28 C)
Dew Point: 66 F (19 C)
Relative Humidity: 58%
Pressure (altimeter): 29.80 in. Hg (1009 hPa)
ob: SACO 211200Z 03014KT CAVOK 28/19 Q1009 NOSIG
cycle: 12

Station Type Date Time Source
SACO TAF 2019/02/21 12:27 UTC NOAA

TAF TAF SACO 211100Z 2112/2212 02010KT CAVOK TX36/2118Z TN23/2210Z
BECMG 2114/2117 02015G25KT 9999 SCT030


Example: see airport list